sensor_id;sensor_type;location;lat;lon;timestamp;P1;durP1;ratioP1;P2;durP2;ratioP2
31692;SDS011;37436;53.230;6.614;2023-06-10T00:01:17;12.38;;;4.75;;
31692;SDS011;37436;53.230;6.614;2023-06-10T00:03:43;7.90;;;4.70;;
31692;SDS011;37436;53.230;6.614;2023-06-10T00:06:09;11.95;;;4.45;;
31692;SDS011;37436;53.230;6.614;2023-06-10T00:08:36;9.77;;;4.88;;
31692;SDS011;37436;53.230;6.614;2023-06-10T00:11:08;9.23;;;4.82;;
31692;SDS011;37436;53.230;6.614;2023-06-10T00:13:34;7.10;;;4.85;;
31692;SDS011;37436;53.230;6.614;2023-06-10T00:16:00;13.23;;;5.70;;
31692;SDS011;37436;53.230;6.614;2023-06-10T00:18:26;9.32;;;4.65;;
31692;SDS011;37436;53.230;6.614;2023-06-10T00:20:56;14.13;;;5.65;;
31692;SDS011;37436;53.230;6.614;2023-06-10T00:23:49;12.32;;;5.22;;
31692;SDS011;37436;53.230;6.614;2023-06-10T00:26:15;9.02;;;5.00;;
31692;SDS011;37436;53.230;6.614;2023-06-10T00:28:41;10.70;;;5.47;;
31692;SDS011;37436;53.230;6.614;2023-06-10T00:31:08;12.55;;;6.38;;
31692;SDS011;37436;53.230;6.614;2023-06-10T00:37:02;10.73;;;6.03;;
31692;SDS011;37436;53.230;6.614;2023-06-10T00:39:41;12.40;;;5.78;;
31692;SDS011;37436;53.230;6.614;2023-06-10T00:42:07;14.13;;;5.72;;
31692;SDS011;37436;53.230;6.614;2023-06-10T00:44:35;13.18;;;5.72;;
31692;SDS011;37436;53.230;6.614;2023-06-10T00:47:02;10.57;;;5.28;;
31692;SDS011;37436;53.230;6.614;2023-06-10T00:49:34;10.70;;;5.43;;
31692;SDS011;37436;53.230;6.614;2023-06-10T00:52:01;14.43;;;5.45;;
31692;SDS011;37436;53.230;6.614;2023-06-10T00:54:28;14.38;;;6.63;;
31692;SDS011;37436;53.230;6.614;2023-06-10T00:56:54;13.82;;;5.13;;
31692;SDS011;37436;53.230;6.614;2023-06-10T00:59:41;14.60;;;6.13;;
31692;SDS011;37436;53.230;6.614;2023-06-10T01:02:09;13.88;;;6.28;;
31692;SDS011;37436;53.230;6.614;2023-06-10T01:04:35;11.23;;;5.60;;
31692;SDS011;37436;53.230;6.614;2023-06-10T01:12:05;12.07;;;5.63;;
31692;SDS011;37436;53.230;6.614;2023-06-10T01:14:36;10.98;;;5.38;;
31692;SDS011;37436;53.230;6.614;2023-06-10T01:17:10;16.45;;;5.53;;
31692;SDS011;37436;53.230;6.614;2023-06-10T01:19:55;12.25;;;4.97;;
31692;SDS011;37436;53.230;6.614;2023-06-10T01:22:24;13.85;;;5.78;;
31692;SDS011;37436;53.230;6.614;2023-06-10T01:24:51;10.32;;;4.68;;
31692;SDS011;37436;53.230;6.614;2023-06-10T01:27:36;15.47;;;6.10;;
31692;SDS011;37436;53.230;6.614;2023-06-10T01:30:28;13.00;;;5.13;;
31692;SDS011;37436;53.230;6.614;2023-06-10T01:32:58;9.05;;;4.85;;
31692;SDS011;37436;53.230;6.614;2023-06-10T01:35:28;13.48;;;5.20;;
31692;SDS011;37436;53.230;6.614;2023-06-10T01:38:02;13.90;;;5.25;;
31692;SDS011;37436;53.230;6.614;2023-06-10T01:40:28;11.82;;;4.78;;
31692;SDS011;37436;53.230;6.614;2023-06-10T01:42:55;7.97;;;4.45;;
31692;SDS011;37436;53.230;6.614;2023-06-10T01:45:22;8.70;;;4.38;;
31692;SDS011;37436;53.230;6.614;2023-06-10T01:47:48;18.35;;;5.60;;
31692;SDS011;37436;53.230;6.614;2023-06-10T01:50:15;12.85;;;4.82;;
31692;SDS011;37436;53.230;6.614;2023-06-10T01:52:45;9.95;;;4.90;;
31692;SDS011;37436;53.230;6.614;2023-06-10T01:55:11;9.93;;;4.90;;
31692;SDS011;37436;53.230;6.614;2023-06-10T02:00:28;9.45;;;4.18;;
31692;SDS011;37436;53.230;6.614;2023-06-10T02:05:40;11.27;;;4.80;;
31692;SDS011;37436;53.230;6.614;2023-06-10T02:08:07;9.40;;;4.40;;
31692;SDS011;37436;53.230;6.614;2023-06-10T02:10:40;9.60;;;4.28;;
31692;SDS011;37436;53.230;6.614;2023-06-10T02:13:09;11.25;;;4.70;;
31692;SDS011;37436;53.230;6.614;2023-06-10T02:15:38;12.65;;;4.07;;
31692;SDS011;37436;53.230;6.614;2023-06-10T02:18:04;10.93;;;4.35;;
31692;SDS011;37436;53.230;6.614;2023-06-10T02:20:45;10.35;;;5.03;;
31692;SDS011;37436;53.230;6.614;2023-06-10T02:26:13;8.65;;;4.43;;
31692;SDS011;37436;53.230;6.614;2023-06-10T02:28:43;10.48;;;4.88;;
31692;SDS011;37436;53.230;6.614;2023-06-10T02:31:35;17.17;;;4.45;;
31692;SDS011;37436;53.230;6.614;2023-06-10T02:34:06;13.07;;;4.22;;
31692;SDS011;37436;53.230;6.614;2023-06-10T02:36:33;17.45;;;4.63;;
31692;SDS011;37436;53.230;6.614;2023-06-10T02:39:01;8.70;;;4.93;;
31692;SDS011;37436;53.230;6.614;2023-06-10T02:41:30;17.40;;;5.72;;
31692;SDS011;37436;53.230;6.614;2023-06-10T02:44:00;11.73;;;4.90;;
31692;SDS011;37436;53.230;6.614;2023-06-10T02:46:30;11.27;;;5.35;;
31692;SDS011;37436;53.230;6.614;2023-06-10T02:48:57;11.25;;;4.50;;
31692;SDS011;37436;53.230;6.614;2023-06-10T02:51:31;11.82;;;4.63;;
31692;SDS011;37436;53.230;6.614;2023-06-10T02:54:00;13.32;;;5.22;;
31692;SDS011;37436;53.230;6.614;2023-06-10T02:56:30;16.10;;;4.40;;
31692;SDS011;37436;53.230;6.614;2023-06-10T02:58:58;9.13;;;4.60;;
31692;SDS011;37436;53.230;6.614;2023-06-10T03:01:25;9.45;;;4.47;;
31692;SDS011;37436;53.230;6.614;2023-06-10T03:04:10;11.02;;;4.28;;
31692;SDS011;37436;53.230;6.614;2023-06-10T03:06:40;14.07;;;4.93;;
31692;SDS011;37436;53.230;6.614;2023-06-10T03:09:07;18.05;;;4.88;;
31692;SDS011;37436;53.230;6.614;2023-06-10T03:11:54;13.48;;;4.68;;
31692;SDS011;37436;53.230;6.614;2023-06-10T03:16:46;10.85;;;4.60;;
31692;SDS011;37436;53.230;6.614;2023-06-10T03:19:13;16.02;;;4.63;;
31692;SDS011;37436;53.230;6.614;2023-06-10T03:21:47;9.95;;;4.75;;
31692;SDS011;37436;53.230;6.614;2023-06-10T03:24:13;12.27;;;5.47;;
31692;SDS011;37436;53.230;6.614;2023-06-10T03:26:40;11.90;;;5.35;;
31692;SDS011;37436;53.230;6.614;2023-06-10T03:29:09;12.25;;;5.05;;
31692;SDS011;37436;53.230;6.614;2023-06-10T03:31:35;12.40;;;5.22;;
31692;SDS011;37436;53.230;6.614;2023-06-10T03:34:02;11.43;;;5.18;;
31692;SDS011;37436;53.230;6.614;2023-06-10T03:36:28;10.13;;;5.32;;
31692;SDS011;37436;53.230;6.614;2023-06-10T03:38:55;13.98;;;5.50;;
31692;SDS011;37436;53.230;6.614;2023-06-10T03:41:22;14.82;;;5.90;;
31692;SDS011;37436;53.230;6.614;2023-06-10T03:43:51;12.10;;;5.03;;
31692;SDS011;37436;53.230;6.614;2023-06-10T03:46:17;13.10;;;5.45;;
31692;SDS011;37436;53.230;6.614;2023-06-10T03:48:46;14.73;;;5.60;;
31692;SDS011;37436;53.230;6.614;2023-06-10T03:51:13;20.70;;;6.63;;
31692;SDS011;37436;53.230;6.614;2023-06-10T03:53:40;17.42;;;6.43;;
31692;SDS011;37436;53.230;6.614;2023-06-10T03:59:00;17.73;;;5.80;;
31692;SDS011;37436;53.230;6.614;2023-06-10T04:01:26;19.98;;;6.75;;
31692;SDS011;37436;53.230;6.614;2023-06-10T04:04:13;14.20;;;5.85;;
31692;SDS011;37436;53.230;6.614;2023-06-10T04:06:41;14.98;;;6.25;;
31692;SDS011;37436;53.230;6.614;2023-06-10T04:09:33;21.85;;;5.25;;
31692;SDS011;37436;53.230;6.614;2023-06-10T04:12:19;13.27;;;6.53;;
31692;SDS011;37436;53.230;6.614;2023-06-10T04:17:35;18.70;;;6.57;;
31692;SDS011;37436;53.230;6.614;2023-06-10T04:22:48;13.80;;;5.95;;
31692;SDS011;37436;53.230;6.614;2023-06-10T04:25:14;14.27;;;6.20;;
31692;SDS011;37436;53.230;6.614;2023-06-10T04:27:54;14.48;;;5.85;;
31692;SDS011;37436;53.230;6.614;2023-06-10T04:30:23;15.30;;;7.15;;
31692;SDS011;37436;53.230;6.614;2023-06-10T04:33:01;17.27;;;6.93;;
31692;SDS011;37436;53.230;6.614;2023-06-10T04:35:28;16.50;;;6.72;;
31692;SDS011;37436;53.230;6.614;2023-06-10T04:37:54;20.75;;;6.38;;
31692;SDS011;37436;53.230;6.614;2023-06-10T04:40:43;15.35;;;6.57;;
31692;SDS011;37436;53.230;6.614;2023-06-10T04:43:10;13.60;;;6.57;;
31692;SDS011;37436;53.230;6.614;2023-06-10T04:45:43;19.55;;;6.22;;
31692;SDS011;37436;53.230;6.614;2023-06-10T04:48:13;19.50;;;7.87;;
31692;SDS011;37436;53.230;6.614;2023-06-10T04:50:39;16.70;;;6.90;;
31692;SDS011;37436;53.230;6.614;2023-06-10T04:56:04;18.77;;;6.45;;
31692;SDS011;37436;53.230;6.614;2023-06-10T04:58:33;18.45;;;5.90;;
31692;SDS011;37436;53.230;6.614;2023-06-10T05:01:08;21.15;;;6.63;;
31692;SDS011;37436;53.230;6.614;2023-06-10T05:03:43;20.45;;;6.18;;
31692;SDS011;37436;53.230;6.614;2023-06-10T05:06:49;21.27;;;6.40;;
31692;SDS011;37436;53.230;6.614;2023-06-10T05:09:33;14.82;;;6.05;;
31692;SDS011;37436;53.230;6.614;2023-06-10T05:12:00;11.52;;;5.07;;
31692;SDS011;37436;53.230;6.614;2023-06-10T05:14:27;17.00;;;6.18;;
31692;SDS011;37436;53.230;6.614;2023-06-10T05:16:54;11.40;;;5.20;;
31692;SDS011;37436;53.230;6.614;2023-06-10T05:19:21;18.98;;;6.30;;
31692;SDS011;37436;53.230;6.614;2023-06-10T05:21:47;17.35;;;6.40;;
31692;SDS011;37436;53.230;6.614;2023-06-10T05:24:13;16.70;;;5.85;;
31692;SDS011;37436;53.230;6.614;2023-06-10T05:26:39;13.98;;;5.93;;
31692;SDS011;37436;53.230;6.614;2023-06-10T05:29:06;15.73;;;6.32;;
31692;SDS011;37436;53.230;6.614;2023-06-10T05:31:33;10.50;;;5.35;;
31692;SDS011;37436;53.230;6.614;2023-06-10T05:33:59;19.92;;;6.00;;
31692;SDS011;37436;53.230;6.614;2023-06-10T05:36:25;13.23;;;5.15;;
31692;SDS011;37436;53.230;6.614;2023-06-10T05:38:54;17.23;;;6.05;;
31692;SDS011;37436;53.230;6.614;2023-06-10T05:41:20;13.00;;;5.47;;
31692;SDS011;37436;53.230;6.614;2023-06-10T05:43:47;13.40;;;5.30;;
31692;SDS011;37436;53.230;6.614;2023-06-10T05:46:14;22.83;;;5.47;;
31692;SDS011;37436;53.230;6.614;2023-06-10T05:48:41;14.52;;;5.80;;
31692;SDS011;37436;53.230;6.614;2023-06-10T05:51:07;11.93;;;5.32;;
31692;SDS011;37436;53.230;6.614;2023-06-10T05:53:36;10.07;;;5.40;;
31692;SDS011;37436;53.230;6.614;2023-06-10T05:56:06;13.02;;;5.43;;
31692;SDS011;37436;53.230;6.614;2023-06-10T05:58:36;11.35;;;5.40;;
31692;SDS011;37436;53.230;6.614;2023-06-10T06:01:12;16.98;;;4.82;;
31692;SDS011;37436;53.230;6.614;2023-06-10T06:03:44;13.70;;;6.80;;
31692;SDS011;37436;53.230;6.614;2023-06-10T06:06:11;10.93;;;5.35;;
31692;SDS011;37436;53.230;6.614;2023-06-10T06:08:37;16.92;;;5.45;;
31692;SDS011;37436;53.230;6.614;2023-06-10T06:11:04;14.35;;;5.03;;
31692;SDS011;37436;53.230;6.614;2023-06-10T06:13:33;13.73;;;6.45;;
31692;SDS011;37436;53.230;6.614;2023-06-10T06:16:00;18.95;;;5.45;;
31692;SDS011;37436;53.230;6.614;2023-06-10T06:18:26;10.70;;;5.18;;
31692;SDS011;37436;53.230;6.614;2023-06-10T06:20:52;11.05;;;5.60;;
31692;SDS011;37436;53.230;6.614;2023-06-10T06:23:21;12.30;;;5.13;;
31692;SDS011;37436;53.230;6.614;2023-06-10T06:25:47;18.60;;;6.63;;
31692;SDS011;37436;53.230;6.614;2023-06-10T06:28:14;13.38;;;4.97;;
31692;SDS011;37436;53.230;6.614;2023-06-10T06:30:47;13.88;;;5.63;;
31692;SDS011;37436;53.230;6.614;2023-06-10T06:33:13;18.15;;;5.75;;
31692;SDS011;37436;53.230;6.614;2023-06-10T06:35:46;13.25;;;5.45;;
31692;SDS011;37436;53.230;6.614;2023-06-10T06:38:24;14.25;;;5.40;;
31692;SDS011;37436;53.230;6.614;2023-06-10T06:40:59;14.90;;;5.82;;
31692;SDS011;37436;53.230;6.614;2023-06-10T06:43:34;13.38;;;5.63;;
31692;SDS011;37436;53.230;6.614;2023-06-10T06:46:01;11.48;;;5.63;;
31692;SDS011;37436;53.230;6.614;2023-06-10T06:48:27;13.95;;;5.53;;
31692;SDS011;37436;53.230;6.614;2023-06-10T06:51:00;13.18;;;5.82;;
31692;SDS011;37436;53.230;6.614;2023-06-10T06:53:26;8.98;;;5.00;;
31692;SDS011;37436;53.230;6.614;2023-06-10T06:55:52;12.95;;;5.28;;
31692;SDS011;37436;53.230;6.614;2023-06-10T06:58:18;11.13;;;5.20;;
31692;SDS011;37436;53.230;6.614;2023-06-10T07:00:50;16.30;;;5.40;;
31692;SDS011;37436;53.230;6.614;2023-06-10T07:03:17;17.25;;;6.88;;
31692;SDS011;37436;53.230;6.614;2023-06-10T07:05:43;12.32;;;5.43;;
31692;SDS011;37436;53.230;6.614;2023-06-10T07:08:09;11.30;;;5.95;;
31692;SDS011;37436;53.230;6.614;2023-06-10T07:10:38;9.77;;;4.82;;
31692;SDS011;37436;53.230;6.614;2023-06-10T07:13:07;8.13;;;4.70;;
31692;SDS011;37436;53.230;6.614;2023-06-10T07:15:33;10.63;;;5.28;;
31692;SDS011;37436;53.230;6.614;2023-06-10T07:17:59;13.60;;;5.35;;
31692;SDS011;37436;53.230;6.614;2023-06-10T07:20:26;9.15;;;5.15;;
31692;SDS011;37436;53.230;6.614;2023-06-10T07:22:52;8.30;;;4.70;;
31692;SDS011;37436;53.230;6.614;2023-06-10T07:25:18;8.65;;;5.18;;
31692;SDS011;37436;53.230;6.614;2023-06-10T07:27:44;14.43;;;6.00;;
31692;SDS011;37436;53.230;6.614;2023-06-10T07:30:11;11.02;;;4.85;;
31692;SDS011;37436;53.230;6.614;2023-06-10T07:32:44;9.10;;;4.68;;
31692;SDS011;37436;53.230;6.614;2023-06-10T07:35:13;6.90;;;3.90;;
31692;SDS011;37436;53.230;6.614;2023-06-10T07:37:40;9.45;;;3.95;;
31692;SDS011;37436;53.230;6.614;2023-06-10T07:40:06;11.20;;;4.95;;
31692;SDS011;37436;53.230;6.614;2023-06-10T07:42:34;12.25;;;4.32;;
31692;SDS011;37436;53.230;6.614;2023-06-10T07:45:01;10.88;;;5.25;;
31692;SDS011;37436;53.230;6.614;2023-06-10T07:47:27;8.98;;;4.63;;
31692;SDS011;37436;53.230;6.614;2023-06-10T07:49:56;10.52;;;4.13;;
31692;SDS011;37436;53.230;6.614;2023-06-10T07:52:22;8.63;;;4.28;;
31692;SDS011;37436;53.230;6.614;2023-06-10T07:54:49;9.02;;;4.97;;
31692;SDS011;37436;53.230;6.614;2023-06-10T07:57:15;11.00;;;4.10;;
31692;SDS011;37436;53.230;6.614;2023-06-10T07:59:41;11.00;;;4.30;;
31692;SDS011;37436;53.230;6.614;2023-06-10T08:02:09;7.78;;;4.15;;
31692;SDS011;37436;53.230;6.614;2023-06-10T08:04:35;8.55;;;3.95;;
31692;SDS011;37436;53.230;6.614;2023-06-10T08:07:01;8.32;;;3.90;;
31692;SDS011;37436;53.230;6.614;2023-06-10T08:09:28;15.63;;;5.07;;
31692;SDS011;37436;53.230;6.614;2023-06-10T08:11:54;13.55;;;4.53;;
31692;SDS011;37436;53.230;6.614;2023-06-10T08:14:21;10.18;;;4.97;;
31692;SDS011;37436;53.230;6.614;2023-06-10T08:16:51;12.60;;;4.20;;
31692;SDS011;37436;53.230;6.614;2023-06-10T08:19:17;10.18;;;4.10;;
31692;SDS011;37436;53.230;6.614;2023-06-10T08:21:43;10.70;;;4.50;;
31692;SDS011;37436;53.230;6.614;2023-06-10T08:24:09;11.07;;;4.25;;
31692;SDS011;37436;53.230;6.614;2023-06-10T08:26:45;10.75;;;4.95;;
31692;SDS011;37436;53.230;6.614;2023-06-10T08:29:11;10.60;;;4.35;;
31692;SDS011;37436;53.230;6.614;2023-06-10T08:31:42;13.07;;;4.10;;
31692;SDS011;37436;53.230;6.614;2023-06-10T08:34:10;8.55;;;3.95;;
31692;SDS011;37436;53.230;6.614;2023-06-10T08:36:43;9.85;;;4.05;;
31692;SDS011;37436;53.230;6.614;2023-06-10T08:39:23;8.15;;;4.22;;
31692;SDS011;37436;53.230;6.614;2023-06-10T08:44:33;7.93;;;3.97;;
31692;SDS011;37436;53.230;6.614;2023-06-10T08:47:12;10.32;;;3.97;;
31692;SDS011;37436;53.230;6.614;2023-06-10T08:49:52;7.43;;;3.92;;
31692;SDS011;37436;53.230;6.614;2023-06-10T08:52:52;12.70;;;4.72;;
31692;SDS011;37436;53.230;6.614;2023-06-10T08:55:38;13.48;;;5.68;;
31692;SDS011;37436;53.230;6.614;2023-06-10T08:58:27;16.20;;;4.15;;
31692;SDS011;37436;53.230;6.614;2023-06-10T09:00:58;7.95;;;4.40;;
31692;SDS011;37436;53.230;6.614;2023-06-10T09:06:14;9.32;;;3.80;;
31692;SDS011;37436;53.230;6.614;2023-06-10T09:08:43;10.52;;;3.92;;
31692;SDS011;37436;53.230;6.614;2023-06-10T09:14:40;10.02;;;3.97;;
31692;SDS011;37436;53.230;6.614;2023-06-10T09:17:25;7.95;;;4.10;;
31692;SDS011;37436;53.230;6.614;2023-06-10T09:19:55;6.80;;;4.35;;
31692;SDS011;37436;53.230;6.614;2023-06-10T09:22:22;9.73;;;4.45;;
31692;SDS011;37436;53.230;6.614;2023-06-10T09:25:16;8.82;;;4.22;;
31692;SDS011;37436;53.230;6.614;2023-06-10T09:33:38;11.00;;;4.78;;
31692;SDS011;37436;53.230;6.614;2023-06-10T09:36:06;10.10;;;4.63;;
31692;SDS011;37436;53.230;6.614;2023-06-10T09:38:47;10.05;;;4.35;;
31692;SDS011;37436;53.230;6.614;2023-06-10T09:41:43;9.80;;;4.10;;
31692;SDS011;37436;53.230;6.614;2023-06-10T09:44:33;8.93;;;4.15;;
31692;SDS011;37436;53.230;6.614;2023-06-10T09:47:05;5.35;;;4.05;;
31692;SDS011;37436;53.230;6.614;2023-06-10T09:53:02;9.93;;;4.13;;
31692;SDS011;37436;53.230;6.614;2023-06-10T09:55:55;10.02;;;4.30;;
31692;SDS011;37436;53.230;6.614;2023-06-10T10:02:05;7.97;;;4.00;;
31692;SDS011;37436;53.230;6.614;2023-06-10T10:07:50;5.90;;;3.35;;
31692;SDS011;37436;53.230;6.614;2023-06-10T10:10:25;7.78;;;3.88;;
31692;SDS011;37436;53.230;6.614;2023-06-10T10:13:18;7.95;;;4.35;;
31692;SDS011;37436;53.230;6.614;2023-06-10T10:15:46;7.63;;;4.15;;
31692;SDS011;37436;53.230;6.614;2023-06-10T10:18:33;12.00;;;4.25;;
31692;SDS011;37436;53.230;6.614;2023-06-10T10:21:03;8.50;;;4.07;;
31692;SDS011;37436;53.230;6.614;2023-06-10T10:23:58;9.90;;;4.75;;
31692;SDS011;37436;53.230;6.614;2023-06-10T10:26:29;7.18;;;4.30;;
31692;SDS011;37436;53.230;6.614;2023-06-10T10:35:17;6.22;;;4.05;;
31692;SDS011;37436;53.230;6.614;2023-06-10T10:38:02;6.95;;;3.83;;
31692;SDS011;37436;53.230;6.614;2023-06-10T10:40:29;9.13;;;5.00;;
31692;SDS011;37436;53.230;6.614;2023-06-10T10:43:19;15.77;;;4.63;;
31692;SDS011;37436;53.230;6.614;2023-06-10T10:45:46;8.68;;;5.03;;
31692;SDS011;37436;53.230;6.614;2023-06-10T10:48:44;11.63;;;3.90;;
31692;SDS011;37436;53.230;6.614;2023-06-10T10:51:26;8.18;;;4.30;;
31692;SDS011;37436;53.230;6.614;2023-06-10T11:00:07;9.73;;;4.35;;
31692;SDS011;37436;53.230;6.614;2023-06-10T11:02:52;11.25;;;4.70;;
31692;SDS011;37436;53.230;6.614;2023-06-10T11:14:14;12.05;;;4.25;;
31692;SDS011;37436;53.230;6.614;2023-06-10T11:19:50;8.75;;;4.50;;
31692;SDS011;37436;53.230;6.614;2023-06-10T11:22:16;7.80;;;4.25;;
31692;SDS011;37436;53.230;6.614;2023-06-10T11:25:04;10.68;;;4.05;;
31692;SDS011;37436;53.230;6.614;2023-06-10T11:28:19;5.13;;;3.83;;
31692;SDS011;37436;53.230;6.614;2023-06-10T11:33:55;8.40;;;4.60;;
31692;SDS011;37436;53.230;6.614;2023-06-10T11:36:25;6.70;;;3.55;;
31692;SDS011;37436;53.230;6.614;2023-06-10T11:42:38;5.32;;;3.33;;
31692;SDS011;37436;53.230;6.614;2023-06-10T11:48:08;9.20;;;3.50;;
31692;SDS011;37436;53.230;6.614;2023-06-10T11:53:38;12.77;;;4.40;;
31692;SDS011;37436;53.230;6.614;2023-06-10T11:56:12;6.32;;;3.72;;
31692;SDS011;37436;53.230;6.614;2023-06-10T11:58:42;9.98;;;4.88;;
31692;SDS011;37436;53.230;6.614;2023-06-10T12:04:17;8.02;;;4.07;;
31692;SDS011;37436;53.230;6.614;2023-06-10T12:06:50;6.32;;;3.85;;
31692;SDS011;37436;53.230;6.614;2023-06-10T12:16:14;7.50;;;3.72;;
31692;SDS011;37436;53.230;6.614;2023-06-10T12:19:13;7.55;;;3.95;;
31692;SDS011;37436;53.230;6.614;2023-06-10T12:22:00;8.73;;;3.80;;
31692;SDS011;37436;53.230;6.614;2023-06-10T12:31:29;6.50;;;3.57;;
31692;SDS011;37436;53.230;6.614;2023-06-10T12:37:00;10.60;;;4.20;;
31692;SDS011;37436;53.230;6.614;2023-06-10T12:39:32;6.75;;;3.72;;
31692;SDS011;37436;53.230;6.614;2023-06-10T12:42:14;6.15;;;3.95;;
31692;SDS011;37436;53.230;6.614;2023-06-10T12:44:47;15.45;;;5.65;;
31692;SDS011;37436;53.230;6.614;2023-06-10T12:47:37;6.40;;;3.80;;
31692;SDS011;37436;53.230;6.614;2023-06-10T12:50:19;8.77;;;4.53;;
31692;SDS011;37436;53.230;6.614;2023-06-10T12:52:45;13.63;;;4.70;;
31692;SDS011;37436;53.230;6.614;2023-06-10T12:58:23;7.95;;;3.83;;
31692;SDS011;37436;53.230;6.614;2023-06-10T13:00:53;7.35;;;3.83;;
31692;SDS011;37436;53.230;6.614;2023-06-10T13:03:19;8.30;;;3.95;;
31692;SDS011;37436;53.230;6.614;2023-06-10T13:06:05;11.07;;;4.03;;
31692;SDS011;37436;53.230;6.614;2023-06-10T13:08:32;6.35;;;3.70;;
31692;SDS011;37436;53.230;6.614;2023-06-10T13:11:21;11.05;;;4.00;;
31692;SDS011;37436;53.230;6.614;2023-06-10T13:14:15;9.75;;;3.70;;
31692;SDS011;37436;53.230;6.614;2023-06-10T13:17:03;6.78;;;3.55;;
31692;SDS011;37436;53.230;6.614;2023-06-10T13:19:33;11.45;;;4.40;;
31692;SDS011;37436;53.230;6.614;2023-06-10T13:22:34;8.63;;;3.70;;
31692;SDS011;37436;53.230;6.614;2023-06-10T13:25:05;8.45;;;3.92;;
31692;SDS011;37436;53.230;6.614;2023-06-10T13:27:34;11.15;;;4.13;;
31692;SDS011;37436;53.230;6.614;2023-06-10T13:30:17;9.63;;;3.80;;
31692;SDS011;37436;53.230;6.614;2023-06-10T13:33:07;8.98;;;4.00;;
31692;SDS011;37436;53.230;6.614;2023-06-10T13:36:27;7.60;;;3.55;;
31692;SDS011;37436;53.230;6.614;2023-06-10T13:39:00;6.63;;;3.40;;
31692;SDS011;37436;53.230;6.614;2023-06-10T13:41:50;18.10;;;12.43;;
31692;SDS011;37436;53.230;6.614;2023-06-10T13:44:35;11.77;;;5.15;;
31692;SDS011;37436;53.230;6.614;2023-06-10T13:47:07;13.50;;;3.65;;
31692;SDS011;37436;53.230;6.614;2023-06-10T13:52:54;6.63;;;3.13;;
31692;SDS011;37436;53.230;6.614;2023-06-10T13:55:22;6.55;;;3.78;;
31692;SDS011;37436;53.230;6.614;2023-06-10T13:57:53;7.97;;;3.38;;
31692;SDS011;37436;53.230;6.614;2023-06-10T14:03:36;8.05;;;3.35;;
31692;SDS011;37436;53.230;6.614;2023-06-10T14:06:21;9.00;;;3.50;;
31692;SDS011;37436;53.230;6.614;2023-06-10T14:08:50;9.35;;;3.47;;
31692;SDS011;37436;53.230;6.614;2023-06-10T14:11:24;7.05;;;3.15;;
31692;SDS011;37436;53.230;6.614;2023-06-10T14:13:54;7.88;;;3.35;;
31692;SDS011;37436;53.230;6.614;2023-06-10T14:16:25;4.45;;;3.05;;
31692;SDS011;37436;53.230;6.614;2023-06-10T14:18:51;13.80;;;3.88;;
31692;SDS011;37436;53.230;6.614;2023-06-10T14:21:19;4.45;;;3.47;;
31692;SDS011;37436;53.230;6.614;2023-06-10T14:24:00;5.72;;;3.25;;
31692;SDS011;37436;53.230;6.614;2023-06-10T14:26:28;7.38;;;4.05;;
31692;SDS011;37436;53.230;6.614;2023-06-10T14:28:58;6.07;;;3.45;;
31692;SDS011;37436;53.230;6.614;2023-06-10T14:31:44;6.93;;;3.38;;
31692;SDS011;37436;53.230;6.614;2023-06-10T14:34:10;4.65;;;2.80;;
31692;SDS011;37436;53.230;6.614;2023-06-10T14:36:41;6.53;;;3.20;;
31692;SDS011;37436;53.230;6.614;2023-06-10T14:39:29;7.88;;;3.33;;
31692;SDS011;37436;53.230;6.614;2023-06-10T14:42:16;5.78;;;3.00;;
31692;SDS011;37436;53.230;6.614;2023-06-10T14:44:43;4.57;;;2.90;;
31692;SDS011;37436;53.230;6.614;2023-06-10T14:47:10;7.47;;;3.20;;
31692;SDS011;37436;53.230;6.614;2023-06-10T14:49:46;8.32;;;3.17;;
31692;SDS011;37436;53.230;6.614;2023-06-10T14:52:12;5.07;;;3.42;;
31692;SDS011;37436;53.230;6.614;2023-06-10T14:54:43;5.45;;;2.65;;
31692;SDS011;37436;53.230;6.614;2023-06-10T14:57:10;10.38;;;3.17;;
31692;SDS011;37436;53.230;6.614;2023-06-10T14:59:51;9.18;;;3.13;;
31692;SDS011;37436;53.230;6.614;2023-06-10T15:02:18;4.63;;;3.25;;
31692;SDS011;37436;53.230;6.614;2023-06-10T15:05:05;5.85;;;3.15;;
31692;SDS011;37436;53.230;6.614;2023-06-10T15:07:51;5.45;;;2.78;;
31692;SDS011;37436;53.230;6.614;2023-06-10T15:10:17;8.02;;;3.33;;
31692;SDS011;37436;53.230;6.614;2023-06-10T15:12:44;4.75;;;3.67;;
31692;SDS011;37436;53.230;6.614;2023-06-10T15:15:10;9.18;;;3.45;;
31692;SDS011;37436;53.230;6.614;2023-06-10T15:17:36;11.13;;;2.92;;
31692;SDS011;37436;53.230;6.614;2023-06-10T15:20:03;4.75;;;2.85;;
31692;SDS011;37436;53.230;6.614;2023-06-10T15:22:30;6.22;;;3.15;;
31692;SDS011;37436;53.230;6.614;2023-06-10T15:24:58;6.20;;;3.53;;
31692;SDS011;37436;53.230;6.614;2023-06-10T15:27:24;6.38;;;3.78;;
31692;SDS011;37436;53.230;6.614;2023-06-10T15:29:51;6.25;;;3.47;;
31692;SDS011;37436;53.230;6.614;2023-06-10T15:32:17;9.65;;;3.20;;
31692;SDS011;37436;53.230;6.614;2023-06-10T15:34:44;4.25;;;2.78;;
31692;SDS011;37436;53.230;6.614;2023-06-10T15:37:25;4.55;;;2.88;;
31692;SDS011;37436;53.230;6.614;2023-06-10T15:39:51;6.32;;;2.80;;
31692;SDS011;37436;53.230;6.614;2023-06-10T15:42:17;5.22;;;3.08;;
31692;SDS011;37436;53.230;6.614;2023-06-10T15:44:44;5.85;;;3.30;;
31692;SDS011;37436;53.230;6.614;2023-06-10T15:47:13;6.53;;;2.88;;
31692;SDS011;37436;53.230;6.614;2023-06-10T15:49:39;3.80;;;2.83;;
31692;SDS011;37436;53.230;6.614;2023-06-10T15:52:18;4.97;;;2.97;;
31692;SDS011;37436;53.230;6.614;2023-06-10T15:54:44;6.97;;;3.13;;
31692;SDS011;37436;53.230;6.614;2023-06-10T15:57:16;6.85;;;3.15;;
31692;SDS011;37436;53.230;6.614;2023-06-10T15:59:45;6.68;;;2.80;;
31692;SDS011;37436;53.230;6.614;2023-06-10T16:02:11;6.05;;;3.08;;
31692;SDS011;37436;53.230;6.614;2023-06-10T16:04:37;5.70;;;3.20;;
31692;SDS011;37436;53.230;6.614;2023-06-10T16:07:06;8.63;;;3.55;;
31692;SDS011;37436;53.230;6.614;2023-06-10T16:09:32;7.47;;;3.05;;
31692;SDS011;37436;53.230;6.614;2023-06-10T16:12:00;10.55;;;7.60;;
31692;SDS011;37436;53.230;6.614;2023-06-10T16:14:34;13.27;;;7.10;;
31692;SDS011;37436;53.230;6.614;2023-06-10T16:17:00;15.50;;;4.53;;
31692;SDS011;37436;53.230;6.614;2023-06-10T16:19:27;7.28;;;4.15;;
31692;SDS011;37436;53.230;6.614;2023-06-10T16:21:56;16.38;;;11.82;;
31692;SDS011;37436;53.230;6.614;2023-06-10T16:24:25;15.18;;;8.77;;
31692;SDS011;37436;53.230;6.614;2023-06-10T16:32:19;11.52;;;7.90;;
31692;SDS011;37436;53.230;6.614;2023-06-10T16:34:45;8.82;;;6.55;;
31692;SDS011;37436;53.230;6.614;2023-06-10T16:37:11;7.13;;;3.47;;
31692;SDS011;37436;53.230;6.614;2023-06-10T16:39:38;8.07;;;5.18;;
31692;SDS011;37436;53.230;6.614;2023-06-10T16:42:20;9.95;;;5.65;;
31692;SDS011;37436;53.230;6.614;2023-06-10T16:44:46;5.70;;;2.92;;
31692;SDS011;37436;53.230;6.614;2023-06-10T16:47:12;7.72;;;3.90;;
31692;SDS011;37436;53.230;6.614;2023-06-10T16:49:52;7.28;;;3.20;;
31692;SDS011;37436;53.230;6.614;2023-06-10T16:52:24;8.55;;;2.80;;
31692;SDS011;37436;53.230;6.614;2023-06-10T16:54:51;8.50;;;3.22;;
31692;SDS011;37436;53.230;6.614;2023-06-10T16:57:18;5.50;;;3.05;;
31692;SDS011;37436;53.230;6.614;2023-06-10T16:59:47;9.80;;;4.35;;
31692;SDS011;37436;53.230;6.614;2023-06-10T17:02:19;9.02;;;4.20;;
31692;SDS011;37436;53.230;6.614;2023-06-10T17:04:49;7.18;;;3.35;;
31692;SDS011;37436;53.230;6.614;2023-06-10T17:07:15;7.28;;;3.15;;
31692;SDS011;37436;53.230;6.614;2023-06-10T17:09:45;7.05;;;3.25;;
31692;SDS011;37436;53.230;6.614;2023-06-10T17:15:45;14.68;;;4.82;;
31692;SDS011;37436;53.230;6.614;2023-06-10T17:17:55;10.23;;;3.72;;
31692;SDS011;37436;53.230;6.614;2023-06-10T17:20:45;8.18;;;3.50;;